Time;durP1;ratioP1;P1;durP2;ratioP2;P2;SDS_P1;SDS_P2;PMS_P1;PMS_P2;Temp;Humidity;BMP_temperature;BMP_pressure;BME280_temperature;BME280_humidity;BME280_pressure;Samples;Min_cycle;Max_cycle;Signal;HPM_P1;HPM_P2
2021/04/01 00:00:05;;;;;;;18.55;10.55;;;;;;;8.38;100.00;96412.28;1031951;28;20019;-60
2021/04/01 00:00:37;;;;;;;20.75;10.65;;;;;;;8.36;100.00;96411.59;1035761;28;20414;-56
2021/04/01 00:01:09;;;;;;;23.90;11.60;;;;;;;8.37;100.00;96404.50;1035656;28;20476;-58
2021/04/01 00:01:42;;;;;;;20.88;11.15;;;;;;;8.34;100.00;96408.25;1044081;28;20071;-58
2021/04/01 00:02:13;;;;;;;24.65;11.10;;;;;;;8.32;100.00;96407.56;1039951;28;20017;-58
2021/04/01 00:02:51;;;;;;;21.95;10.50;;;;;;;8.32;100.00;96404.94;1039927;28;20522;-57
2021/04/01 00:03:22;;;;;;;18.52;10.15;;;;;;;8.33;100.00;96408.44;1043985;28;20029;-59
2021/04/01 00:03:53;;;;;;;30.55;11.70;;;;;;;8.34;100.00;96400.31;1039672;28;20025;-58
2021/04/01 00:04:24;;;;;;;19.70;10.82;;;;;;;8.34;100.00;96400.31;1039987;28;20480;-56
2021/04/01 00:04:55;;;;;;;23.80;11.02;;;;;;;8.34;100.00;96410.06;1040019;28;20471;-57
2021/04/01 00:05:27;;;;;;;22.20;10.75;;;;;;;8.36;100.00;96411.59;1039764;28;20091;-58
2021/04/01 00:05:58;;;;;;;22.67;11.18;;;;;;;8.35;100.00;96409.94;1031759;28;20022;-57
2021/04/01 00:06:29;;;;;;;22.70;10.90;;;;;;;8.35;100.00;96402.00;1031895;28;20030;-58
2021/04/01 00:07:00;;;;;;;24.75;11.52;;;;;;;8.26;100.00;96395.78;1035919;28;20121;-58
2021/04/01 00:07:31;;;;;;;22.25;10.85;;;;;;;8.32;100.00;96410.22;1039854;28;20043;-58
2021/04/01 00:08:02;;;;;;;23.88;10.77;;;;;;;8.30;100.00;96399.78;1031833;28;20364;-58
2021/04/01 00:08:32;;;;;;;22.83;10.80;;;;;;;8.27;100.00;96405.41;1035755;28;20017;-58
2021/04/01 00:09:04;;;;;;;22.17;10.02;;;;;;;8.27;100.00;96399.25;1035926;28;20097;-58
2021/04/01 00:09:35;;;;;;;19.80;10.43;;;;;;;8.26;100.00;96394.97;1035723;28;20113;-59
2021/04/01 00:10:07;;;;;;;24.17;10.77;;;;;;;8.26;100.00;96406.38;1035825;28;20024;-59
2021/04/01 00:10:40;;;;;;;27.48;12.60;;;;;;;8.19;100.00;96400.00;1035866;28;20022;-58
2021/04/01 00:11:11;;;;;;;19.92;10.27;;;;;;;8.19;100.00;96400.00;1031683;28;20018;-57
2021/04/01 00:11:42;;;;;;;23.48;10.88;;;;;;;8.18;100.00;96398.34;1031657;28;20026;-59
2021/04/01 00:12:13;;;;;;;25.17;11.23;;;;;;;8.18;100.00;96403.63;1031751;28;20018;-57
2021/04/01 00:12:43;;;;;;;23.52;11.32;;;;;;;8.19;100.00;96399.19;1043987;28;20082;-59
2021/04/01 00:13:14;;;;;;;23.35;11.60;;;;;;;8.18;100.00;96405.47;1039810;28;20040;-57
2021/04/01 00:13:45;;;;;;;24.20;11.45;;;;;;;8.18;100.00;96398.34;1039679;28;20519;-57
2021/04/01 00:14:18;;;;;;;24.08;10.07;;;;;;;8.16;100.00;96399.50;1031742;28;20401;-60
2021/04/01 00:14:49;;;;;;;20.60;11.10;;;;;;;8.07;100.00;96385.34;1035839;28;20022;-59
2021/04/01 00:15:20;;;;;;;20.15;11.05;;;;;;;8.10;100.00;96399.09;1035775;28;20018;-58
2021/04/01 00:15:53;;;;;;;20.55;10.63;;;;;;;8.11;100.00;96398.09;1031665;28;20033;-59
2021/04/01 00:16:24;;;;;;;21.95;10.77;;;;;;;8.10;100.00;96393.81;1040065;28;20022;-59
2021/04/01 00:16:55;;;;;;;24.75;10.45;;;;;;;8.10;100.00;96400.94;1035840;28;20116;-57
2021/04/01 00:17:26;;;;;;;18.77;10.48;;;;;;;8.09;100.00;96397.44;1031930;28;20500;-58
2021/04/01 00:17:57;;;;;;;28.27;11.65;;;;;;;8.00;100.00;96387.75;1031626;28;20022;-58
2021/04/01 00:18:28;;;;;;;19.27;11.00;;;;;;;8.07;100.00;96394.09;1039889;28;20052;-57
2021/04/01 00:18:59;;;;;;;24.00;11.10;;;;;;;8.06;100.00;96397.75;1043986;28;20047;-59
2021/04/01 00:19:30;;;;;;;26.90;11.60;;;;;;;8.04;100.00;96399.69;1039771;28;20172;-59
2021/04/01 00:20:02;;;;;;;22.83;10.90;;;;;;;8.03;100.00;96400.69;1039703;28;20127;-58
2021/04/01 00:20:33;;;;;;;21.40;10.75;;;;;;;8.04;100.00;96393.56;1039952;28;20087;-58
2021/04/01 00:21:04;;;;;;;22.77;11.45;;;;;;;8.05;100.00;96395.25;1044036;28;20124;-59
2021/04/01 00:21:35;;;;;;;23.02;11.07;;;;;;;8.04;100.00;96401.50;1035766;28;20018;-60
2021/04/01 00:22:06;;;;;;;19.33;10.93;;;;;;;8.02;100.00;96393.72;1035708;28;20500;-59
2021/04/01 00:22:37;;;;;;;25.90;10.93;;;;;;;8.03;100.00;96394.53;1035822;28;20029;-57
2021/04/01 00:23:08;;;;;;;25.83;10.65;;;;;;;8.03;100.00;96394.53;1035697;28;20014;-58
2021/04/01 00:23:38;;;;;;;20.63;10.60;;;;;;;8.02;100.00;96395.53;1035597;28;20468;-59
2021/04/01 00:24:10;;;;;;;23.92;11.07;;;;;;;8.00;100.00;96393.03;1031600;28;20033;-59
2021/04/01 00:24:40;;;;;;;26.55;10.45;;;;;;;7.99;100.00;96395.81;1035789;28;20021;-59
2021/04/01 00:25:13;;;;;;;18.60;10.77;;;;;;;7.97;100.00;96393.31;1039684;28;20037;-57
2021/04/01 00:25:43;;;;;;;21.00;10.13;;;;;;;7.89;100.00;96372.94;1039888;28;20017;-59
2021/04/01 00:26:14;;;;;;;19.15;9.82;;;;;;;7.97;100.00;96392.50;1031697;28;20041;-59
2021/04/01 00:26:45;;;;;;;20.08;10.68;;;;;;;7.99;100.00;96391.34;1035809;28;20045;-58
2021/04/01 00:27:16;;;;;;;20.33;10.55;;;;;;;7.99;100.00;96393.19;1039962;28;20025;-58
2021/04/01 00:27:46;;;;;;;17.38;9.82;;;;;;;7.99;100.00;96391.34;1035707;28;20022;-59
2021/04/01 00:28:17;;;;;;;20.58;10.40;;;;;;;7.99;100.00;96388.72;1039733;28;20117;-57
2021/04/01 00:28:48;;;;;;;20.63;10.60;;;;;;;8.00;100.00;96386.94;1039914;28;20159;-58
2021/04/01 00:29:20;;;;;;;20.08;10.07;;;;;;;8.00;100.00;96390.41;1044089;28;20021;-58
2021/04/01 00:29:50;;;;;;;20.48;10.30;;;;;;;7.98;100.00;96380.97;1039860;28;20014;-59
2021/04/01 00:30:22;;;;;;;19.90;10.75;;;;;;;7.99;100.00;96388.72;1031491;28;20057;-58
2021/04/01 00:30:53;;;;;;;24.52;10.93;;;;;;;7.97;100.00;96380.09;1031625;28;20026;-59
2021/04/01 00:31:23;;;;;;;22.40;10.88;;;;;;;7.96;100.00;96399.63;1035734;28;20048;-59
2021/04/01 00:31:54;;;;;;;22.42;10.75;;;;;;;7.97;100.00;96388.03;1035715;28;20129;-59
2021/04/01 00:32:26;;;;;;;22.60;10.57;;;;;;;7.96;100.00;96385.53;1035644;28;20049;-58
2021/04/01 00:32:56;;;;;;;21.63;11.38;;;;;;;7.96;100.00;96383.75;1035756;28;20017;-57
2021/04/01 00:33:27;;;;;;;18.83;10.65;;;;;;;7.94;100.00;96380.41;1031694;28;20024;-57
2021/04/01 00:33:58;;;;;;;28.83;10.68;;;;;;;7.95;100.00;96391.81;1031482;28;20026;-58
2021/04/01 00:34:29;;;;;;;19.95;10.13;;;;;;;7.95;100.00;96383.91;1035606;28;20017;-57
2021/04/01 00:35:00;;;;;;;19.10;10.45;;;;;;;7.92;100.00;96390.28;1039794;28;20017;-58
2021/04/01 00:35:30;;;;;;;25.73;11.10;;;;;;;7.91;100.00;96381.53;1035767;28;20530;-57
2021/04/01 00:36:01;;;;;;;21.73;10.52;;;;;;;7.90;100.00;96382.50;1044006;28;20043;-58
2021/04/01 00:36:32;;;;;;;24.17;11.02;;;;;;;7.86;100.00;96377.69;1039665;28;20013;-57
2021/04/01 00:37:03;;;;;;;21.58;10.50;;;;;;;7.90;100.00;96384.31;1039807;28;20041;-58
2021/04/01 00:37:34;;;;;;;20.23;9.40;;;;;;;7.79;100.00;96381.91;1039827;28;20067;-58
2021/04/01 00:38:04;;;;;;;24.13;11.07;;;;;;;7.86;100.00;96381.16;1039747;28;20013;-58
2021/04/01 00:38:35;;;;;;;18.65;10.32;;;;;;;7.85;100.00;96382.13;1035600;28;20022;-58
2021/04/01 00:39:06;;;;;;;19.83;9.73;;;;;;;7.87;100.00;96380.19;1039756;28;20013;-59
2021/04/01 00:39:36;;;;;;;20.63;11.05;;;;;;;7.87;100.00;96384.63;1039847;28;20013;-57
2021/04/01 00:40:08;;;;;;;19.02;10.40;;;;;;;7.85;100.00;96378.66;1039888;28;20538;-59
2021/04/01 00:40:39;;;;;;;22.00;9.43;;;;;;;7.83;100.00;96375.31;1043776;28;20017;-59
2021/04/01 00:41:10;;;;;;;19.05;10.50;;;;;;;7.85;100.00;96381.28;1035718;28;20461;-58
2021/04/01 00:41:41;;;;;;;19.00;10.10;;;;;;;7.89;100.00;96377.41;1035673;28;20484;-58
2021/04/01 00:42:11;;;;;;;18.63;9.52;;;;;;;7.88;100.00;96381.00;1043797;28;20013;-58
2021/04/01 00:42:42;;;;;;;20.10;10.35;;;;;;;7.87;100.00;96380.19;1043984;28;20017;-58
2021/04/01 00:43:13;;;;;;;21.17;10.98;;;;;;;7.87;100.00;96379.34;1031627;28;20507;-57
2021/04/01 00:43:44;;;;;;;21.35;10.60;;;;;;;7.88;100.00;96375.72;1043565;28;20017;-57
2021/04/01 00:44:16;;;;;;;20.83;11.05;;;;;;;7.88;100.00;96379.19;1035803;28;20538;-58
2021/04/01 00:44:47;;;;;;;21.10;9.70;;;;;;;7.86;100.00;96375.88;1031547;28;20034;-59
2021/04/01 00:45:19;;;;;;;25.10;11.05;;;;;;;7.85;100.00;96376.00;1039608;28;20032;-59
2021/04/01 00:45:49;;;;;;;21.50;10.93;;;;;;;7.86;100.00;96372.41;1031657;28;20022;-58
2021/04/01 00:46:20;;;;;;;17.33;10.38;;;;;;;7.85;100.00;96376.84;1039707;28;20601;-58
2021/04/01 00:46:51;;;;;;;22.63;10.57;;;;;;;7.84;100.00;96374.38;1035559;28;20096;-59
2021/04/01 00:47:22;;;;;;;22.05;11.15;;;;;;;7.81;100.00;96378.13;1031747;28;20030;-58
2021/04/01 00:47:52;;;;;;;22.50;10.27;;;;;;;7.79;100.00;96379.25;1035600;28;20104;-58
2021/04/01 00:48:23;;;;;;;20.30;10.07;;;;;;;7.76;100.00;96372.44;1035664;28;20026;-59
2021/04/01 00:48:54;;;;;;;21.27;10.38;;;;;;;7.72;100.00;96376.38;1039742;28;20092;-59
2021/04/01 00:49:25;;;;;;;20.05;9.88;;;;;;;7.71;100.00;96378.16;1039814;28;20032;-58
2021/04/01 00:49:55;;;;;;;24.38;10.73;;;;;;;7.67;100.00;96373.34;1039778;28;20048;-58
2021/04/01 00:50:28;;;;;;;18.27;9.50;;;;;;;7.68;100.00;96381.13;1031947;28;20101;-57
2021/04/01 00:50:59;;;;;;;24.45;10.93;;;;;;;7.66;100.00;96375.16;1039636;28;20021;-57
2021/04/01 00:51:30;;;;;;;19.13;10.50;;;;;;;7.71;100.00;96372.88;1035831;28;20014;-59
2021/04/01 00:52:00;;;;;;;21.00;10.25;;;;;;;7.71;100.00;96375.50;1039959;28;20037;-57
2021/04/01 00:52:31;;;;;;;19.25;9.60;;;;;;;7.71;100.00;96375.50;1039779;28;20045;-58
2021/04/01 00:53:02;;;;;;;17.77;10.30;;;;;;;7.68;100.00;96367.91;1035854;28;20059;-58
2021/04/01 00:53:33;;;;;;;18.80;9.45;;;;;;;7.70;100.00;96371.22;1044475;28;20406;-58
2021/04/01 00:54:03;;;;;;;17.42;9.48;;;;;;;7.69;100.00;96376.66;1044677;28;20017;-59
2021/04/01 00:54:35;;;;;;;16.15;9.45;;;;;;;7.67;100.00;96376.81;1040547;28;20021;-58
2021/04/01 00:55:07;;;;;;;22.75;10.60;;;;;;;7.67;100.00;96375.97;1036401;28;20022;-58
2021/04/01 00:55:38;;;;;;;21.13;9.40;;;;;;;7.68;100.00;96369.69;1036549;28;20345;-58
2021/04/01 00:56:08;;;;;;;18.73;9.30;;;;;;;7.67;100.00;96371.50;1036388;28;20468;-58
2021/04/01 00:56:39;;;;;;;19.90;9.70;;;;;;;7.68;100.00;96375.84;1032476;28;20020;-58
2021/04/01 00:57:10;;;;;;;21.27;9.82;;;;;;;7.67;100.00;96375.97;1040462;28;20029;-59
2021/04/01 00:57:42;;;;;;;21.90;9.82;;;;;;;7.68;100.00;96374.97;1044678;28;20086;-58
2021/04/01 00:58:14;;;;;;;20.23;10.18;;;;;;;7.66;100.00;96372.50;1036436;28;20024;-58
2021/04/01 00:58:45;;;;;;;18.92;10.10;;;;;;;7.68;100.00;96372.34;1036501;28;20100;-57
2021/04/01 00:59:16;;;;;;;18.05;9.77;;;;;;;7.62;100.00;96365.00;1036406;28;20171;-60
2021/04/01 00:59:46;;;;;;;19.92;9.38;;;;;;;7.67;100.00;96375.97;1032328;28;20010;-59
2021/04/01 01:00:20;;;;;;;21.85;10.82;;;;;;;7.65;100.00;96376.13;1036465;28;20026;-58
2021/04/01 01:01:45;;;;;;;19.92;9.65;;;;;;;7.67;100.00;96378.63;1032434;28;20037;-58
2021/04/01 01:02:16;;;;;;;25.77;9.68;;;;;;;7.65;100.00;96370.84;1036410;28;20112;-59
2021/04/01 01:02:46;;;;;;;20.00;10.07;;;;;;;7.68;100.00;96374.97;1036412;28;20018;-58
2021/04/01 01:03:17;;;;;;;21.00;9.70;;;;;;;7.69;100.00;96371.38;1036531;28;20093;-57
2021/04/01 01:03:48;;;;;;;18.10;9.55;;;;;;;7.68;100.00;96372.34;1040312;28;20020;-57
2021/04/01 01:04:18;;;;;;;17.42;8.93;;;;;;;7.68;100.00;96374.97;1040458;28;20018;-58
2021/04/01 01:04:49;;;;;;;16.98;9.13;;;;;;;7.69;100.00;96374.84;1044654;28;20024;-58
2021/04/01 01:05:20;;;;;;;18.77;8.75;;;;;;;7.70;100.00;96378.34;1036491;28;20029;-59
2021/04/01 01:05:51;;;;;;;17.33;8.93;;;;;;;7.68;100.00;96375.84;1036223;28;20028;-58
2021/04/01 01:06:22;;;;;;;16.85;9.20;;;;;;;7.66;100.00;96376.94;1032329;28;20032;-57
2021/04/01 01:06:53;;;;;;;17.30;9.45;;;;;;;7.65;100.00;96375.31;1032351;28;20105;-59
2021/04/01 01:07:24;;;;;;;24.08;9.25;;;;;;;7.66;100.00;96376.94;1036410;28;20045;-58
2021/04/01 01:07:55;;;;;;;21.38;9.43;;;;;;;7.66;100.00;96380.44;1036400;28;20076;-59
2021/04/01 01:08:25;;;;;;;18.15;9.77;;;;;;;7.66;100.00;96377.78;1036425;28;20026;-58
2021/04/01 01:08:56;;;;;;;15.95;9.85;;;;;;;7.67;100.00;96376.81;1036351;28;20129;-60
2021/04/01 01:09:27;;;;;;;16.77;8.95;;;;;;;7.65;100.00;96376.13;1044652;28;20021;-58
2021/04/01 01:09:58;;;;;;;17.02;8.75;;;;;;;7.63;100.00;96379.88;1044499;28;20017;-58
2021/04/01 01:10:31;;;;;;;19.55;9.55;;;;;;;7.63;100.00;96379.88;1040443;28;20112;-58
2021/04/01 01:11:02;;;;;;;18.40;9.52;;;;;;;7.62;100.00;96386.16;1036209;28;20029;-58
2021/04/01 01:11:33;;;;;;;15.95;8.90;;;;;;;7.60;100.00;96378.38;1036369;28;20041;-58
2021/04/01 01:12:05;;;;;;;17.10;8.70;;;;;;;7.61;100.00;96380.03;1036217;28;20025;-58
2021/04/01 01:12:35;;;;;;;18.83;9.20;;;;;;;7.61;100.00;96376.56;1040465;28;20017;-59
2021/04/01 01:13:06;;;;;;;19.83;8.70;;;;;;;7.60;100.00;96380.19;1040515;28;20022;-58
2021/04/01 01:13:37;;;;;;;16.20;8.45;;;;;;;7.59;100.00;96376.69;1032150;28;20023;-57
2021/04/01 01:14:08;;;;;;;18.00;8.30;;;;;;;7.61;100.00;96380.03;1040423;28;20055;-58
2021/04/01 01:14:38;;;;;;;16.25;8.00;;;;;;;7.60;100.00;96377.53;1040418;28;20023;-59
2021/04/01 01:15:10;;;;;;;25.70;9.80;;;;;;;7.60;100.00;96382.84;1036357;28;20022;-58
2021/04/01 01:15:41;;;;;;;19.20;8.77;;;;;;;7.60;100.00;96377.53;1036450;28;20415;-58
2021/04/01 01:16:11;;;;;;;15.30;8.82;;;;;;;7.61;100.00;96369.47;1044414;28;20115;-58
2021/04/01 01:16:42;;;;;;;17.60;8.57;;;;;;;7.55;100.00;96370.88;1036441;28;20033;-58
2021/04/01 01:17:15;;;;;;;16.80;9.00;;;;;;;7.64;100.00;96371.81;1044511;28;20025;-59
2021/04/01 01:17:45;;;;;;;15.60;8.73;;;;;;;7.62;100.00;96378.22;1036430;28;20014;-57
2021/04/01 01:18:16;;;;;;;20.48;9.02;;;;;;;7.59;100.00;96371.41;1044410;28;20033;-59
2021/04/01 01:18:47;;;;;;;16.17;8.02;;;;;;;7.60;100.00;96370.44;1040474;28;20032;-60
2021/04/01 01:19:18;;;;;;;23.52;9.57;;;;;;;7.59;100.00;96376.69;1040355;28;20025;-58
2021/04/01 01:19:51;;;;;;;19.23;8.63;;;;;;;7.60;100.00;96380.19;1044636;28;20052;-59
2021/04/01 01:20:24;;;;;;;16.17;9.23;;;;;;;7.58;100.00;96375.06;1040348;28;20455;-58
2021/04/01 01:20:57;;;;;;;16.30;8.02;;;;;;;7.55;100.00;96364.75;1036247;28;20022;-59
2021/04/01 01:21:28;;;;;;;19.95;8.32;;;;;;;7.52;100.00;96365.91;1040555;28;20090;-59
2021/04/01 01:21:59;;;;;;;16.10;8.75;;;;;;;7.60;100.00;96373.09;1032327;28;20065;-59
2021/04/01 01:22:29;;;;;;;18.42;8.45;;;;;;;7.61;100.00;96368.63;1040278;28;20013;-56
2021/04/01 01:23:07;;;;;;;19.10;8.65;;;;;;;7.62;100.00;96372.94;1040529;28;20041;-57
2021/04/01 01:23:40;;;;;;;20.05;8.95;;;;;;;7.63;100.00;96369.31;1040365;28;20029;-57
2021/04/01 01:24:13;;;;;;;21.65;9.10;;;;;;;7.63;100.00;96370.16;1036468;28;20099;-58
2021/04/01 01:24:44;;;;;;;17.45;8.45;;;;;;;7.63;100.00;96371.94;1040414;28;20045;-59
2021/04/01 01:25:15;;;;;;;18.48;8.82;;;;;;;7.61;100.00;96373.91;1040413;28;20402;-59
2021/04/01 01:25:46;;;;;;;18.65;8.98;;;;;;;7.59;100.00;96375.88;1036221;28;20505;-57
2021/04/01 01:26:18;;;;;;;13.90;8.45;;;;;;;7.53;100.00;96367.53;1032182;28;20027;-59
2021/04/01 01:26:48;;;;;;;18.65;8.20;;;;;;;7.56;100.00;96377.00;1040321;28;20021;-58
2021/04/01 01:27:19;;;;;;;17.42;8.60;;;;;;;7.55;100.00;96370.03;1036288;28;20021;-58
2021/04/01 01:27:50;;;;;;;15.88;9.02;;;;;;;7.52;100.00;96365.03;1048638;28;20028;-58
2021/04/01 01:28:21;;;;;;;15.93;8.68;;;;;;;7.51;100.00;96364.22;1036339;28;20058;-59
2021/04/01 01:28:52;;;;;;;18.27;9.40;;;;;;;7.50;100.00;96372.28;1032158;28;20429;-57
2021/04/01 01:29:23;;;;;;;17.10;8.77;;;;;;;7.49;100.00;96365.34;1036399;28;20033;-58
2021/04/01 01:29:54;;;;;;;18.88;8.18;;;;;;;7.51;100.00;96366.03;1044485;28;20029;-57
2021/04/01 01:30:25;;;;;;;15.30;7.32;;;;;;;7.53;100.00;96366.72;1040500;28;20510;-59
2021/04/01 01:30:56;;;;;;;19.92;7.93;;;;;;;7.54;100.00;96363.09;1040217;28;20052;-58
2021/04/01 01:31:26;;;;;;;16.98;7.75;;;;;;;7.55;100.00;96362.94;1040437;28;20029;-58
2021/04/01 01:31:57;;;;;;;17.08;8.65;;;;;;;7.54;100.00;96363.94;1040382;28;20017;-58
2021/04/01 01:32:36;;;;;;;16.02;8.13;;;;;;;7.54;100.00;96363.94;1032272;28;20518;-58
2021/04/01 01:33:08;;;;;;;16.70;8.55;;;;;;;7.53;100.00;96361.44;1044526;28;20449;-58
2021/04/01 01:33:41;;;;;;;18.00;8.25;;;;;;;7.54;100.00;96368.38;1036086;28;20022;-58
2021/04/01 01:34:12;;;;;;;16.20;8.10;;;;;;;7.53;100.00;96364.91;1036318;28;20084;-57
2021/04/01 01:34:43;;;;;;;20.77;9.52;;;;;;;7.52;100.00;96360.63;1040366;28;20017;-57
2021/04/01 01:35:25;;;;;;;15.98;8.13;;;;;;;7.46;100.00;96368.28;1035814;28;20022;-57
2021/04/01 01:35:56;;;;;;;16.48;8.82;;;;;;;7.47;100.00;96362.00;1036254;28;20017;-58
2021/04/01 01:36:26;;;;;;;17.73;8.35;;;;;;;7.47;100.00;96362.88;1032260;28;20022;-57
2021/04/01 01:36:57;;;;;;;13.98;7.63;;;;;;;7.46;100.00;96357.72;1040274;28;20021;-59
2021/04/01 01:37:28;;;;;;;16.10;7.72;;;;;;;7.46;100.00;96361.19;1036212;28;20029;-59
2021/04/01 01:38:00;;;;;;;13.05;7.50;;;;;;;7.45;100.00;96364.78;1036201;28;20030;-58
2021/04/01 01:38:31;;;;;;;15.20;7.97;;;;;;;7.43;100.00;96361.47;1032306;28;20061;-58
2021/04/01 01:39:02;;;;;;;16.52;8.68;;;;;;;7.43;100.00;96355.38;1036206;28;20605;-58
2021/04/01 01:39:32;;;;;;;17.33;7.93;;;;;;;7.44;100.00;96357.03;1032338;28;20049;-57
2021/04/01 01:40:04;;;;;;;15.55;8.23;;;;;;;7.42;100.00;96358.97;1036255;28;20283;-57
2021/04/01 01:40:35;;;;;;;16.27;8.25;;;;;;;7.39;100.00;96354.81;1032155;28;20022;-58
2021/04/01 01:41:06;;;;;;;20.23;9.40;;;;;;;7.40;100.00;96355.66;1040152;28;20024;-58
2021/04/01 01:41:37;;;;;;;19.63;8.27;;;;;;;7.41;100.00;96354.69;1032167;28;20038;-57
2021/04/01 01:42:08;;;;;;;17.88;9.32;;;;;;;7.43;100.00;96360.66;1036278;28;20022;-59
2021/04/01 01:42:39;;;;;;;20.25;8.00;;;;;;;7.40;100.00;96359.13;1032140;28;20128;-58
2021/04/01 01:43:13;;;;;;;17.90;8.45;;;;;;;7.40;100.00;96358.28;1040258;28;20013;-59
2021/04/01 01:43:44;;;;;;;16.70;8.25;;;;;;;7.39;100.00;96362.75;1040181;28;20022;-59
2021/04/01 01:44:15;;;;;;;16.20;8.80;;;;;;;7.38;100.00;96354.97;1036169;28;20109;-57
2021/04/01 01:44:45;;;;;;;17.63;8.40;;;;;;;7.39;100.00;96354.00;1040411;28;20049;-58
2021/04/01 01:45:16;;;;;;;14.05;7.55;;;;;;;7.35;100.00;96353.47;1036097;28;20018;-59
2021/04/01 01:45:47;;;;;;;15.02;8.45;;;;;;;7.36;100.00;96363.84;1032277;28;20052;-56
2021/04/01 01:46:18;;;;;;;17.83;8.98;;;;;;;7.35;100.00;96359.56;1032196;28;20435;-58
2021/04/01 01:46:49;;;;;;;13.70;8.10;;;;;;;7.34;100.00;96363.19;1036336;28;20407;-57
2021/04/01 01:47:20;;;;;;;15.52;8.55;;;;;;;7.32;100.00;96362.50;1032130;28;20030;-57
2021/04/01 01:47:51;;;;;;;16.63;7.78;;;;;;;7.25;100.00;96350.03;1036236;28;20022;-58
2021/04/01 01:48:21;;;;;;;16.02;7.55;;;;;;;7.32;100.00;96362.50;1036146;28;20022;-57
2021/04/01 01:48:52;;;;;;;19.25;8.48;;;;;;;7.30;100.00;96358.34;1040331;28;20028;-59
2021/04/01 01:49:23;;;;;;;16.92;8.75;;;;;;;7.24;100.00;96351.81;1032184;28;20056;-60
2021/04/01 01:49:54;;;;;;;21.20;8.73;;;;;;;7.30;100.00;96361.00;1040359;28;20025;-56
2021/04/01 01:50:28;;;;;;;13.50;8.40;;;;;;;7.30;100.00;96361.81;1036306;28;20117;-59
2021/04/01 01:50:59;;;;;;;14.73;8.50;;;;;;;7.32;100.00;96365.13;1036106;28;20029;-58
2021/04/01 01:51:30;;;;;;;17.27;8.30;;;;;;;7.32;100.00;96359.03;1036191;28;20566;-58
2021/04/01 01:52:01;;;;;;;15.27;7.47;;;;;;;7.32;100.00;96357.22;1032196;28;20034;-58
2021/04/01 01:52:31;;;;;;;14.43;6.80;;;;;;;7.32;100.00;96359.03;1036155;28;20060;-58
2021/04/01 01:53:03;;;;;;;17.38;7.68;;;;;;;7.31;100.00;96358.19;1040279;28;20491;-59
2021/04/01 01:53:34;;;;;;;18.40;8.18;;;;;;;7.32;100.00;96357.22;1040083;28;20078;-58
2021/04/01 01:54:05;;;;;;;16.52;7.97;;;;;;;7.31;100.00;96358.19;1036112;28;20028;-59
2021/04/01 01:54:35;;;;;;;17.30;8.35;;;;;;;7.29;100.00;96344.28;1040371;28;20502;-57
2021/04/01 01:55:07;;;;;;;13.13;7.40;;;;;;;7.33;100.00;96358.88;1044516;28;20103;-59
2021/04/01 01:55:38;;;;;;;16.33;8.55;;;;;;;7.34;100.00;96352.59;1040328;28;20527;-58
2021/04/01 01:56:09;;;;;;;16.58;8.43;;;;;;;7.35;100.00;96353.47;1036090;28;20489;-58
2021/04/01 01:56:40;;;;;;;17.33;7.55;;;;;;;7.31;100.00;96344.97;1040353;28;20017;-58
2021/04/01 01:57:10;;;;;;;14.57;7.70;;;;;;;7.36;100.00;96360.41;1044300;28;20053;-59
2021/04/01 01:57:41;;;;;;;13.32;7.80;;;;;;;7.37;100.00;96354.16;1040344;28;20398;-59
2021/04/01 01:58:12;;;;;;;21.67;8.43;;;;;;;7.38;100.00;96350.50;1031800;28;20022;-58
2021/04/01 01:58:43;;;;;;;14.70;7.75;;;;;;;7.40;100.00;96358.28;1032033;28;20018;-59
2021/04/01 01:59:13;;;;;;;18.55;7.97;;;;;;;7.40;100.00;96353.00;1036171;28;20049;-56
2021/04/01 01:59:45;;;;;;;16.05;7.80;;;;;;;7.40;100.00;96353.00;1040298;28;20018;-58
2021/04/01 02:00:26;;;;;;;15.02;7.45;;;;;;;7.39;100.00;96351.38;1044239;28;20063;-58
2021/04/01 02:00:58;;;;;;;14.85;7.70;;;;;;;7.36;100.00;96353.28;1032045;28;20026;-59
2021/04/01 02:01:29;;;;;;;15.68;7.45;;;;;;;7.34;100.00;96355.25;1032206;28;20019;-55
2021/04/01 02:01:59;;;;;;;18.98;8.20;;;;;;;7.33;100.00;96345.69;1035893;28;20026;-56
2021/04/01 02:02:30;;;;;;;14.60;8.05;;;;;;;7.33;100.00;96345.69;1036175;28;20530;-57
2021/04/01 02:03:03;;;;;;;17.50;8.27;;;;;;;7.32;100.00;96351.94;1040100;28;20032;-56
2021/04/01 02:03:34;;;;;;;18.10;8.98;;;;;;;7.32;100.00;96348.47;1035964;28;20566;-58
2021/04/01 02:04:05;;;;;;;16.60;8.68;;;;;;;7.30;100.00;96351.25;1035674;28;20029;-58
2021/04/01 02:04:35;;;;;;;14.48;7.47;;;;;;;7.29;100.00;96344.28;1036236;28;20537;-58
2021/04/01 02:05:07;;;;;;;18.25;9.50;;;;;;;7.28;100.00;96347.06;1032008;28;20034;-57
2021/04/01 02:05:38;;;;;;;21.05;7.75;;;;;;;7.29;100.00;96348.75;1032144;28;20504;-57
2021/04/01 02:06:11;;;;;;;18.75;7.93;;;;;;;7.28;100.00;96353.22;1036055;28;20033;-57
2021/04/01 02:06:43;;;;;;;14.95;7.85;;;;;;;7.29;100.00;96349.56;1032474;28;20041;-59
2021/04/01 02:07:14;;;;;;;13.98;7.82;;;;;;;7.25;100.00;96348.22;1036196;28;20455;-57
2021/04/01 02:07:45;;;;;;;17.10;7.50;;;;;;;7.23;100.00;96352.81;1040215;28;20017;-58
2021/04/01 02:08:16;;;;;;;16.83;7.93;;;;;;;7.19;100.00;96348.78;1040530;28;20053;-58
2021/04/01 02:08:47;;;;;;;16.02;7.88;;;;;;;7.22;100.00;96350.31;1036201;28;20110;-58
2021/04/01 02:09:18;;;;;;;15.00;7.38;;;;;;;7.24;100.00;96354.47;1036038;28;20018;-58
2021/04/01 02:09:49;;;;;;;14.25;8.05;;;;;;;7.22;100.00;96345.03;1040327;28;20036;-58
2021/04/01 02:10:30;;;;;;;16.88;7.35;;;;;;;7.24;100.00;96343.06;1040178;28;20022;-59
2021/04/01 02:11:00;;;;;;;14.98;8.02;;;;;;;7.24;100.00;96351.00;1040353;28;20024;-58
2021/04/01 02:11:31;;;;;;;17.05;7.97;;;;;;;7.18;100.00;96350.59;1036200;28;20100;-57
2021/04/01 02:12:03;;;;;;;16.52;8.30;;;;;;;7.11;100.00;96341.59;1040219;28;20044;-59
2021/04/01 02:12:38;;;;;;;13.90;7.90;;;;;;;7.17;100.00;96348.94;1035932;28;20021;-58
2021/04/01 02:13:09;;;;;;;15.55;7.57;;;;;;;7.16;100.00;96349.91;1032082;28;20026;-58
2021/04/01 02:13:40;;;;;;;17.45;7.80;;;;;;;7.17;100.00;96350.72;1040040;28;20021;-58
2021/04/01 02:14:10;;;;;;;16.23;7.05;;;;;;;7.19;100.00;96340.84;1040281;28;20391;-57
2021/04/01 02:14:42;;;;;;;14.77;7.85;;;;;;;7.17;100.00;96342.81;1032097;28;20034;-59
2021/04/01 02:15:15;;;;;;;19.30;7.53;;;;;;;7.20;100.00;96349.63;1032218;28;20177;-59
2021/04/01 02:15:47;;;;;;;14.88;7.68;;;;;;;7.17;100.00;96348.09;1036242;28;20419;-59
2021/04/01 02:16:18;;;;;;;17.73;7.60;;;;;;;7.16;100.00;96349.91;1041018;28;20029;-58
2021/04/01 02:16:49;;;;;;;14.60;7.53;;;;;;;7.17;100.00;96340.16;1040052;28;20096;-58
2021/04/01 02:17:23;;;;;;;12.65;7.13;;;;;;;7.15;100.00;96337.66;1036133;28;20025;-59
2021/04/01 02:18:04;;;;;;;18.35;7.97;;;;;;;7.16;100.00;96341.16;1040117;28;20033;-57
2021/04/01 02:18:36;;;;;;;15.75;7.35;;;;;;;7.14;100.00;96337.81;1036177;28;20072;-58
2021/04/01 02:19:07;;;;;;;17.83;8.10;;;;;;;7.12;100.00;96337.13;1036068;28;20039;-57
2021/04/01 02:19:38;;;;;;;15.95;7.68;;;;;;;7.11;100.00;96346.03;1032132;28;20029;-59
2021/04/01 02:20:10;;;;;;;15.57;7.38;;;;;;;7.11;100.00;96338.13;1040239;28;20184;-59
2021/04/01 02:20:45;;;;;;;17.70;7.55;;;;;;;7.10;100.00;96341.72;1040231;28;20021;-57
2021/04/01 02:21:18;;;;;;;14.00;7.25;;;;;;;7.07;100.00;96342.00;1036012;28;20032;-59
2021/04/01 02:21:49;;;;;;;13.88;7.30;;;;;;;7.07;100.00;96342.00;1040373;28;20056;-58
2021/04/01 02:22:20;;;;;;;13.57;7.78;;;;;;;7.06;100.00;96343.81;1036041;28;20566;-59
2021/04/01 02:22:51;;;;;;;14.35;7.40;;;;;;;7.04;100.00;96335.22;1031944;28;20025;-58
2021/04/01 02:23:24;;;;;;;14.05;7.57;;;;;;;7.04;100.00;96337.03;1036038;28;20026;-59
2021/04/01 02:23:55;;;;;;;16.00;7.57;;;;;;;7.01;100.00;96329.41;1035980;28;20018;-58
2021/04/01 02:24:25;;;;;;;15.88;7.90;;;;;;;7.05;100.00;96331.59;1040213;28;20064;-58
2021/04/01 02:24:56;;;;;;;16.58;7.38;;;;;;;7.02;100.00;96337.19;1040143;28;20017;-59
2021/04/01 02:25:27;;;;;;;16.95;7.88;;;;;;;7.02;100.00;96337.19;1036105;28;20116;-58
2021/04/01 02:25:58;;;;;;;15.68;8.15;;;;;;;7.02;100.00;96336.31;1032109;28;20014;-59